Time;durP1;ratioP1;P1;durP2;ratioP2;P2;SDS_P1;SDS_P2;PMS_P1;PMS_P2;Temp;Humidity;BMP_temperature;BMP_pressure;BME280_temperature;BME280_humidity;BME280_pressure;Samples;Min_cycle;Max_cycle;Signal;HPM_P1;HPM_P2
2022/07/09 00:09:16;;;;;;;1.35;0.60;;;;;;;;;;20902996;28;20745;-84
2022/07/09 00:19:18;;;;;;;1.10;0.65;;;;;;;;;;20881012;28;20231;-85
2022/07/09 00:29:20;;;;;;;1.75;0.70;;;;;;;;;;20895972;28;20223;-85
2022/07/09 00:39:21;;;;;;;2.67;0.90;;;;;;;;;;20894962;28;20231;-84
2022/07/09 00:49:23;;;;;;;0.55;0.50;;;;;;;;;;20911528;28;20332;-84
2022/07/09 00:59:25;;;;;;;1.58;0.60;;;;;;;;;;20892542;28;20218;-85
2022/07/09 01:09:28;;;;;;;0.80;0.50;;;;;;;;;;20901030;28;20210;-84
2022/07/09 01:19:30;;;;;;;1.33;0.73;;;;;;;;;;20877282;28;20218;-85
2022/07/09 01:29:32;;;;;;;1.93;0.87;;;;;;;;;;20893096;28;20310;-85
2022/07/09 01:39:34;;;;;;;0.60;0.50;;;;;;;;;;20908816;28;20255;-84
2022/07/09 01:49:35;;;;;;;1.10;0.70;;;;;;;;;;20892204;28;20268;-84
2022/07/09 01:59:37;;;;;;;0.47;0.47;;;;;;;;;;20892053;28;20278;-84
2022/07/09 02:09:39;;;;;;;1.30;0.60;;;;;;;;;;20896185;28;20217;-85
2022/07/09 02:19:41;;;;;;;1.17;0.70;;;;;;;;;;20892604;28;20218;-85
2022/07/09 02:29:42;;;;;;;0.50;0.50;;;;;;;;;;20887942;28;20639;-85
2022/07/09 02:39:44;;;;;;;1.33;0.70;;;;;;;;;;20903760;28;20695;-84
2022/07/09 02:49:46;;;;;;;2.63;0.80;;;;;;;;;;20919267;28;20212;-84
2022/07/09 02:59:48;;;;;;;1.47;0.80;;;;;;;;;;20891921;28;20225;-85
2022/07/09 03:09:53;;;;;;;1.30;0.80;;;;;;;;;;20918710;28;20221;-84
2022/07/09 03:19:55;;;;;;;2.47;0.70;;;;;;;;;;20918346;28;20271;-85
2022/07/09 03:29:57;;;;;;;1.50;0.70;;;;;;;;;;20900928;28;20209;-84
2022/07/09 03:39:58;;;;;;;1.30;0.80;;;;;;;;;;20885565;28;20229;-84
2022/07/09 03:50:01;;;;;;;1.73;1.00;;;;;;;;;;20903777;28;20212;-84
2022/07/09 04:00:03;;;;;;;2.80;1.00;;;;;;;;;;20903636;28;20224;-84
2022/07/09 04:10:14;;;;;;;5.80;1.03;;;;;;;;;;20898930;28;20270;-84
2022/07/09 04:20:16;;;;;;;4.73;1.10;;;;;;;;;;20913092;28;20216;-83
2022/07/09 04:30:17;;;;;;;1.53;1.20;;;;;;;;;;20911967;28;20217;-84
2022/07/09 04:40:19;;;;;;;1.90;0.87;;;;;;;;;;20894061;28;20227;-84
2022/07/09 04:50:21;;;;;;;1.87;0.80;;;;;;;;;;20916168;28;20570;-84
2022/07/09 05:00:23;;;;;;;1.37;0.87;;;;;;;;;;20877354;28;20659;-84
2022/07/09 05:10:25;;;;;;;2.00;1.20;;;;;;;;;;20893363;28;20362;-84
2022/07/09 05:20:27;;;;;;;5.50;1.60;;;;;;;;;;20892821;28;20263;-82
2022/07/09 05:30:29;;;;;;;2.73;2.10;;;;;;;;;;20908308;28;20264;-83
2022/07/09 05:40:30;;;;;;;3.63;1.43;;;;;;;;;;20909686;28;20285;-83
2022/07/09 05:50:32;;;;;;;2.00;1.50;;;;;;;;;;20879923;28;20250;-83
2022/07/09 06:00:34;;;;;;;2.00;1.50;;;;;;;;;;20904879;28;20246;-84
2022/07/09 06:10:35;;;;;;;1.37;0.80;;;20.60;99.90;;;;;;20923325;28;20216;-83
2022/07/09 06:20:38;;;;;;;2.03;0.90;;;;;;;;;;20889326;28;20237;-84
2022/07/09 06:30:41;;;;;;;2.83;1.10;;;20.80;99.90;;;;;;20909730;28;20213;-84
2022/07/09 06:40:44;;;;;;;1.90;0.90;;;;;;;;;;20926885;28;20255;-85
2022/07/09 06:50:46;;;;;;;1.50;0.80;;;;;;;;;;20924198;28;20221;-84
2022/07/09 07:00:48;;;;;;;2.27;1.00;;;;;;;;;;20906005;28;20236;-83
2022/07/09 07:10:50;;;;;;;1.83;0.63;;;;;;;;;;20884560;28;20236;-84
2022/07/09 07:20:51;;;;;;;0.73;0.47;;;;;;;;;;20917602;28;20244;-84
2022/07/09 07:30:54;;;;;;;2.05;0.60;;;;;;;;;;20900583;28;20686;-84
2022/07/09 07:40:56;;;;;;;2.03;0.70;;;;;;;;;;20888020;28;20695;-84
2022/07/09 07:50:58;;;;;;;0.88;0.63;;;;;;;;;;20883148;28;20690;-83
2022/07/09 08:01:00;;;;;;;4.07;1.30;;;23.00;99.90;;;;;;20913786;28;20563;-84
2022/07/09 08:11:02;;;;;;;1.25;0.57;;;;;;;;;;20881222;28;20565;-83
2022/07/09 08:21:04;;;;;;;2.13;0.82;;;;;;;;;;20879457;28;20630;-84
2022/07/09 08:31:05;;;;;;;1.20;0.52;;;;;;;;;;20917139;28;20235;-84
2022/07/09 08:41:07;;;;;;;1.00;0.60;;;;;;;;;;20903229;28;20260;-84
2022/07/09 08:51:09;;;;;;;2.08;0.95;;;;;;;;;;20878531;28;20202;-83
2022/07/09 09:01:15;;;;;;;1.65;0.60;;;;;;;;;;20910206;28;20284;-84
2022/07/09 09:11:22;;;;;;;1.85;0.60;;;;;;;;;;20909993;28;20246;-83
2022/07/09 09:21:24;;;;;;;2.72;0.80;;;;;;;;;;20915029;28;20288;-84
2022/07/09 09:31:29;;;;;;;1.77;0.73;;;;;;;;;;20905321;28;20625;-83
2022/07/09 09:41:31;;;;;;;1.35;0.60;;;25.70;99.90;;;;;;20927347;28;20691;-84
2022/07/09 09:51:36;;;;;;;1.33;0.73;;;23.60;99.90;;;;;;20908349;28;20702;-84
2022/07/09 10:01:39;;;;;;;1.65;0.75;;;;;;;;;;20907348;28;20584;-84
2022/07/09 10:11:40;;;;;;;1.77;0.70;;;;;;;;;;20922827;28;20235;-84
2022/07/09 10:21:43;;;;;;;0.63;0.52;;;;;;;;;;20905419;28;20638;-84
2022/07/09 10:31:46;;;;;;;1.10;0.70;;;;;;;;;;20909962;28;20270;-84
2022/07/09 10:41:59;;;;;;;0.63;0.50;;;24.50;99.90;;;;;;20903694;28;20704;-85
2022/07/09 10:52:01;;;;;;;1.35;0.60;;;;;;;;;;20920255;28;20216;-84
2022/07/09 11:02:02;;;;;;;0.63;0.60;;;;;;;;;;20887612;28;20225;-83
2022/07/09 11:12:05;;;;;;;0.45;0.40;;;;;;;;;;20903508;28;20220;-84
2022/07/09 11:22:07;;;;;;;1.13;0.73;;;;;;;;;;20924792;28;20276;-86
2022/07/09 11:32:15;;;;;;;0.63;0.50;;;26.20;98.20;;;;;;20901522;28;20694;-84
2022/07/09 11:42:18;;;;;;;0.30;0.30;;;;;;;;;;20899311;28;20236;-85
2022/07/09 11:52:49;;;;;;;0.80;0.50;;;;;;;;;;20893185;28;20236;-84
2022/07/09 12:02:50;;;;;;;0.43;0.38;;;;;;;;;;20904430;28;20285;-84
2022/07/09 12:12:52;;;;;;;0.45;0.30;;;;;;;;;;20916292;28;20776;-84
2022/07/09 12:22:54;;;;;;;0.90;0.30;;;;;;;;;;20902789;28;20231;-85
2022/07/09 12:32:58;;;;;;;4.80;0.45;;;;;;;;;;20896425;28;20219;-85
2022/07/09 12:43:00;;;;;;;0.80;0.35;;;;;;;;;;20895668;28;20259;-84
2022/07/09 12:53:04;;;;;;;0.55;0.30;;;;;;;;;;20894444;28;20310;-84
2022/07/09 13:03:05;;;;;;;0.47;0.40;;;;;;;;;;20910495;28;20359;-84
2022/07/09 13:13:07;;;;;;;1.30;0.40;;;;;;;;;;20882752;28;20189;-84
2022/07/09 13:23:09;;;;;;;0.47;0.40;;;;;;;;;;20911023;28;20224;-85
2022/07/09 13:33:31;;;;;;;0.30;0.30;;;;;;;;;;20895710;28;20286;-84
2022/07/09 13:43:32;;;;;;;0.90;0.60;;;;;;;;;;20875705;28;20233;-84
2022/07/09 13:53:34;;;;;;;0.80;0.43;;;;;;;;;;20892282;28;20263;-84
2022/07/09 14:03:39;;;;;;;0.30;0.30;;;;;;;;;;20877048;28;20266;-84
2022/07/09 14:13:42;;;;;;;0.20;0.20;;;;;;;;;;20914629;28;20605;-84
2022/07/09 14:23:47;;;;;;;0.30;0.30;;;;;;;;;;20888970;28;20293;-83
2022/07/09 14:34:04;;;;;;;0.73;0.30;;;;;;;;;;20904909;28;20270;-84
2022/07/09 14:44:06;;;;;;;0.60;0.40;;;25.70;82.30;;;;;;20919442;28;20236;-83
2022/07/09 14:54:08;;;;;;;0.50;0.30;;;;;;;;;;20883288;28;20202;-84
2022/07/09 15:04:09;;;;;;;0.55;0.30;;;;;;;;;;20915879;28;20295;-85
2022/07/09 15:14:11;;;;;;;0.40;0.30;;;;;;;;;;20914396;28;20212;-84
2022/07/09 15:24:13;;;;;;;1.77;0.40;;;;;;;;;;20914814;28;20244;-84
2022/07/09 15:34:14;;;;;;;1.30;0.43;;;;;;;;;;20896326;28;20213;-84
2022/07/09 15:44:16;;;;;;;0.40;0.30;;;;;;;;;;20912915;28;20685;-84
2022/07/09 15:54:19;;;;;;;0.28;0.20;;;;;;;;;;20891595;28;20238;-84
2022/07/09 16:04:21;;;;;;;0.68;0.40;;;;;;;;;;20862674;28;20228;-85
2022/07/09 16:14:23;;;;;;;0.40;0.40;;;;;;;;;;20895984;28;20222;-85
2022/07/09 16:24:24;;;;;;;0.63;0.40;;;;;;;;;;20908570;28;20239;-86
2022/07/09 16:34:26;;;;;;;2.35;0.43;;;;;;;;;;20885787;28;20275;-85
2022/07/09 16:44:28;;;;;;;0.55;0.30;;;;;;;;;;20901335;28;20248;-84
2022/07/09 16:54:29;;;;;;;0.55;0.30;;;;;;;;;;20898763;28;20225;-86
2022/07/09 17:14:58;;;;;;;0.38;0.22;;;;;;;;;;20906822;28;20689;-82
2022/07/09 17:25:00;;;;;;;0.50;0.38;;;;;;;;;;20906352;28;20275;-82
2022/07/09 17:35:02;;;;;;;0.52;0.30;;;;;;;;;;20905130;28;20232;-83
2022/07/09 17:45:04;;;;;;;2.05;0.50;;;;;;;;;;20904231;28;20224;-83
2022/07/09 17:55:19;;;;;;;7.65;1.23;;;;;;;;;;20904813;28;20327;-83
2022/07/09 18:05:22;;;;;;;1.00;0.60;;;;;;;;;;20936977;28;20289;-82
2022/07/09 18:15:25;;;;;;;1.45;0.52;;;;;;;;;;21017689;28;20205;-82
2022/07/09 18:25:27;;;;;;;0.90;0.50;;;;;;;;;;21001056;28;20273;-82
2022/07/09 18:35:33;;;;;;;5.97;1.02;;;;;;;;;;20998988;28;20606;-83
2022/07/09 18:45:35;;;;;;;0.80;0.40;;;;;;;;;;20999378;28;20234;-82
2022/07/09 18:55:37;;;;;;;1.02;0.40;;;;;;;;;;20997515;28;20216;-81
2022/07/09 19:05:39;;;;;;;0.73;0.50;;;;;;;;;;20998874;28;20571;-81
2022/07/09 19:15:41;;;;;;;1.20;0.70;;;;;;;;;;20978807;28;20245;-83
2022/07/09 19:25:42;;;;;;;1.70;0.60;;;;;;;;;;20996094;28;20231;-82
2022/07/09 19:35:44;;;;;;;0.65;0.50;;;;;;;;;;20977433;28;20230;-82
2022/07/09 19:45:47;;;;;;;1.10;0.50;;;;;;;;;;20906737;28;20799;-84
2022/07/09 19:55:49;;;;;;;0.85;0.57;;;;;;;;;;20809822;28;20287;-85
2022/07/09 20:05:51;;;;;;;0.90;0.60;;;;;;;;;;20825010;28;20224;-86
2022/07/09 20:15:53;;;;;;;2.35;0.80;;;;;;;;;;20808015;28;20206;-87
2022/07/09 20:25:54;;;;;;;0.50;0.40;;;;;;;;;;20836810;28;20230;-86
2022/07/09 20:35:56;;;;;;;1.38;0.40;;;;;;;;;;20887915;28;20232;-85
2022/07/09 20:45:59;;;;;;;1.27;0.80;;;;;;;;;;20907745;28;20222;-84
2022/07/09 20:56:01;;;;;;;0.93;0.60;;;;;;;;;;20888098;28;20232;-85
2022/07/09 21:06:03;;;;;;;2.17;0.60;;;;;;;;;;20925364;28;20231;-84
2022/07/09 21:16:05;;;;;;;1.17;0.80;;;;;;;;;;20910736;28;20967;-85
2022/07/09 21:26:07;;;;;;;1.52;0.75;;;;;;;;;;20918095;28;20259;-85
2022/07/09 21:36:11;;;;;;;1.15;0.73;;;;;;;;;;20911542;28;20254;-85
2022/07/09 21:46:13;;;;;;;1.70;0.90;;;;;;;;;;20929651;28;20709;-84
2022/07/09 21:56:15;;;;;;;1.50;1.05;;;;;;;;;;20908310;28;20200;-84
2022/07/09 22:06:16;;;;;;;2.25;1.17;;;;;;;;;;20939413;28;20230;-86
2022/07/09 22:16:21;;;;;;;1.25;1.00;;;;;;;;;;20924317;28;20207;-87
2022/07/09 22:26:24;;;;;;;2.40;1.10;;;;;;;;;;20923082;28;20282;-87
2022/07/09 22:36:35;;;;;;;1.60;1.00;;;;;;;;;;20920319;28;20279;-88
2022/07/09 22:46:57;;;;;;;1.10;0.95;;;;;;;;;;20921926;28;20230;-87
2022/07/09 22:56:59;;;;;;;1.77;0.82;;;;;;;;;;20905783;28;20678;-88
2022/07/09 23:07:01;;;;;;;1.75;1.00;;;;;;;;;;20905683;28;20276;-87
2022/07/09 23:17:03;;;;;;;1.73;0.93;;;;;;;;;;20919403;28;20244;-84
2022/07/09 23:27:06;;;;;;;1.30;0.90;;;;;;;;;;20925648;28;20687;-87
2022/07/09 23:37:08;;;;;;;1.60;1.00;;;;;;;;;;20890129;28;20231;-88
2022/07/09 23:47:10;;;;;;;1.90;0.98;;;;;;;;;;20884508;28;20242;-87
2022/07/09 23:57:12;;;;;;;1.15;0.70;;;;;;;;;;20935294;28;20227;-88
